sensor_id;sensor_type;location;lat;lon;timestamp;pressure;altitude;pressure_sealevel;temperature;humidity
53758;BME280;39674;59.860;30.672;2024-02-28T02:49:10;101611.56;;;0.10;100.00
53758;BME280;39674;59.860;30.672;2024-02-28T02:52:35;101503.75;;;-0.63;100.00
53758;BME280;39674;59.860;30.672;2024-02-28T02:56:14;101517.66;;;-0.52;100.00
53758;BME280;39674;59.860;30.672;2024-02-28T03:41:48;101634.91;;;0.06;100.00
53758;BME280;39674;59.860;30.672;2024-02-28T03:44:45;101636.66;;;0.08;100.00
53758;BME280;39674;59.860;30.672;2024-02-28T03:52:25;101529.72;;;-0.60;100.00
53758;BME280;39674;59.860;30.672;2024-02-28T03:55:58;101580.06;;;-0.39;100.00
53758;BME280;39674;59.860;30.672;2024-02-28T04:03:08;101650.47;;;-0.01;100.00
53758;BME280;39674;59.860;30.672;2024-02-28T04:06:01;101549.56;;;-0.67;100.00
53758;BME280;39674;59.860;30.672;2024-02-28T04:08:52;101659.06;;;-0.08;100.00
53758;BME280;39674;59.860;30.672;2024-02-28T04:11:47;101546.91;;;-0.71;100.00
53758;BME280;39674;59.860;30.672;2024-02-28T04:15:09;101661.66;;;-0.09;100.00
53758;BME280;39674;59.860;30.672;2024-02-28T04:33:13;101676.44;;;-0.01;100.00
53758;BME280;39674;59.860;30.672;2024-02-28T04:37:19;101678.97;;;-0.05;100.00
53758;BME280;39674;59.860;30.672;2024-02-28T04:41:21;101632.00;;;-0.36;100.00
53758;BME280;39674;59.860;30.672;2024-02-28T04:45:07;101591.91;;;-0.72;100.00
53758;BME280;39674;59.860;30.672;2024-02-28T04:57:23;101607.53;;;-0.66;100.00
53758;BME280;39674;59.860;30.672;2024-02-28T05:00:39;101578.84;;;-0.80;100.00
53758;BME280;39674;59.860;30.672;2024-02-28T05:08:22;101573.72;;;-0.74;100.00
53758;BME280;39674;59.860;30.672;2024-02-28T05:12:04;101564.16;;;-0.79;100.00
53758;BME280;39674;59.860;30.672;2024-02-28T05:15:38;101659.84;;;-0.20;100.00
53758;BME280;39674;59.860;30.672;2024-02-28T05:18:38;101612.84;;;-0.51;100.00
53758;BME280;39674;59.860;30.672;2024-02-28T05:22:00;101637.19;;;-0.36;100.00
53758;BME280;39674;59.860;30.672;2024-02-28T05:25:48;101685.03;;;-0.09;100.00
53758;BME280;39674;59.860;30.672;2024-02-28T06:27:07;101689.41;;;0.01;100.00
53758;BME280;39674;59.860;30.672;2024-02-28T06:46:32;101675.56;;;-0.01;100.00
53758;BME280;39674;59.860;30.672;2024-02-28T06:49:25;101692.06;;;0.07;100.00
53758;BME280;39674;59.860;30.672;2024-02-28T06:52:38;101646.88;;;-0.17;100.00
53758;BME280;39674;59.860;30.672;2024-02-28T06:55:54;101684.28;;;0.07;100.00
53758;BME280;39674;59.860;30.672;2024-02-28T07:02:43;101600.81;;;-0.42;100.00
53758;BME280;39674;59.860;30.672;2024-02-28T07:05:46;101646.81;;;-0.21;100.00
53758;BME280;39674;59.860;30.672;2024-02-28T07:14:43;101706.78;;;0.08;100.00
53758;BME280;39674;59.860;30.672;2024-02-28T07:17:22;101592.03;;;-0.57;100.00
53758;BME280;39674;59.860;30.672;2024-02-28T07:20:00;101652.91;;;-0.18;100.00
53758;BME280;39674;59.860;30.672;2024-02-28T07:22:36;101706.78;;;0.08;100.00
53758;BME280;39674;59.860;30.672;2024-02-28T07:25:13;101696.34;;;-0.01;100.00
53758;BME280;39674;59.860;30.672;2024-02-28T16:00:01;101517.13;;;0.01;100.00
53758;BME280;39674;59.860;30.672;2024-02-28T16:03:29;101611.84;;;0.63;100.00
53758;BME280;39674;59.860;30.672;2024-02-28T16:06:56;101502.38;;;-0.08;100.00
53758;BME280;39674;59.860;30.672;2024-02-28T16:10:41;101487.63;;;-0.12;100.00
53758;BME280;39674;59.860;30.672;2024-02-28T16:18:59;101479.88;;;-0.03;100.00
53758;BME280;39674;59.860;30.672;2024-02-28T16:23:14;101479.84;;;-0.09;100.00
53758;BME280;39674;59.860;30.672;2024-02-28T16:27:27;101476.41;;;-0.08;100.00
53758;BME280;39674;59.860;30.672;2024-02-28T16:34:27;101576.28;;;0.57;100.00
53758;BME280;39674;59.860;30.672;2024-02-28T16:38:25;101465.09;;;-0.15;100.00
53758;BME280;39674;59.860;30.672;2024-02-28T16:42:05;101466.03;;;-0.08;100.00
53758;BME280;39674;59.860;30.672;2024-02-28T16:45:58;101570.22;;;0.57;100.00
53758;BME280;39674;59.860;30.672;2024-02-28T17:01:42;101440.00;;;-0.18;100.00
53758;BME280;39674;59.860;30.672;2024-02-28T17:26:41;101468.66;;;0.07;100.00
53758;BME280;39674;59.860;30.672;2024-02-28T17:29:23;101483.44;;;0.19;100.00
53758;BME280;39674;59.860;30.672;2024-02-28T17:36:09;101453.09;;;0.10;100.00
53758;BME280;39674;59.860;30.672;2024-02-28T17:39:20;101400.13;;;-0.26;100.00
53758;BME280;39674;59.860;30.672;2024-02-28T17:42:29;101447.88;;;0.07;100.00
53758;BME280;39674;59.860;30.672;2024-02-28T17:45:21;101509.53;;;0.45;100.00
53758;BME280;39674;59.860;30.672;2024-02-28T17:48:11;101510.38;;;0.49;100.00
53758;BME280;39674;59.860;30.672;2024-02-28T17:50:46;101500.00;;;0.46;100.00
53758;BME280;39674;59.860;30.672;2024-02-28T17:53:57;101403.66;;;-0.11;100.00
53758;BME280;39674;59.860;30.672;2024-02-28T17:56:35;101455.75;;;0.23;100.00
53758;BME280;39674;59.860;30.672;2024-02-28T17:59:12;101507.78;;;0.47;100.00
53758;BME280;39674;59.860;30.672;2024-02-28T18:02:09;101467.88;;;0.27;100.00
53758;BME280;39674;59.860;30.672;2024-02-28T18:04:43;101470.47;;;0.24;100.00
53758;BME280;39674;59.860;30.672;2024-02-28T18:07:14;101469.63;;;0.25;100.00
53758;BME280;39674;59.860;30.672;2024-02-28T18:09:44;101396.72;;;-0.19;100.00
53758;BME280;39674;59.860;30.672;2024-02-28T18:12:17;101441.84;;;0.11;100.00
53758;BME280;39674;59.860;30.672;2024-02-28T18:14:53;101507.81;;;0.51;100.00
53758;BME280;39674;59.860;30.672;2024-02-28T18:17:37;101507.81;;;0.54;100.00
53758;BME280;39674;59.860;30.672;2024-02-28T18:20:36;101446.19;;;0.15;100.00
53758;BME280;39674;59.860;30.672;2024-02-28T18:23:12;101418.41;;;-0.13;100.00
53758;BME280;39674;59.860;30.672;2024-02-28T18:25:48;101407.13;;;-0.12;100.00
53758;BME280;39674;59.860;30.672;2024-02-28T18:28:21;101469.59;;;0.20;100.00
53758;BME280;39674;59.860;30.672;2024-02-28T18:31:03;101437.53;;;0.10;100.00
53758;BME280;39674;59.860;30.672;2024-02-28T18:34:01;101441.00;;;0.17;100.00
53758;BME280;39674;59.860;30.672;2024-02-28T18:36:34;101499.13;;;0.48;100.00
53758;BME280;39674;59.860;30.672;2024-02-28T18:39:04;101487.00;;;0.49;100.00
53758;BME280;39674;59.860;30.672;2024-02-28T18:41:33;101395.06;;;-0.01;100.00
53758;BME280;39674;59.860;30.672;2024-02-28T18:44:03;101436.69;;;0.25;100.00
53758;BME280;39674;59.860;30.672;2024-02-28T18:46:35;101416.72;;;0.12;100.00
53758;BME280;39674;59.860;30.672;2024-02-28T18:49:09;101417.63;;;0.19;100.00
53758;BME280;39674;59.860;30.672;2024-02-28T18:51:42;101422.84;;;0.26;100.00
53758;BME280;39674;59.860;30.672;2024-02-28T18:54:13;101421.97;;;0.24;100.00
53758;BME280;39674;59.860;30.672;2024-02-28T18:57:02;101396.84;;;0.12;100.00
53758;BME280;39674;59.860;30.672;2024-02-28T18:59:55;101461.88;;;0.51;100.00
53758;BME280;39674;59.860;30.672;2024-02-28T19:02:45;101359.53;;;-0.14;100.00
53758;BME280;39674;59.860;30.672;2024-02-28T19:05:27;101407.25;;;0.19;100.00
53758;BME280;39674;59.860;30.672;2024-02-28T19:07:59;101424.59;;;0.26;100.00
53758;BME280;39674;59.860;30.672;2024-02-28T19:10:30;101364.69;;;-0.16;100.00
53758;BME280;39674;59.860;30.672;2024-02-28T19:13:01;101408.09;;;0.11;100.00
53758;BME280;39674;59.860;30.672;2024-02-28T19:15:33;101395.94;;;0.12;100.00
53758;BME280;39674;59.860;30.672;2024-02-28T19:18:06;101355.22;;;-0.11;100.00
53758;BME280;39674;59.860;30.672;2024-02-28T19:20:45;101461.03;;;0.51;100.00
53758;BME280;39674;59.860;30.672;2024-02-28T19:23:31;101413.31;;;0.30;100.00
53758;BME280;39674;59.860;30.672;2024-02-28T19:26:15;101331.81;;;-0.14;100.00
53758;BME280;39674;59.860;30.672;2024-02-28T19:29:13;101438.50;;;0.50;100.00
53758;BME280;39674;59.860;30.672;2024-02-28T19:32:16;101398.59;;;0.26;100.00
53758;BME280;39674;59.860;30.672;2024-02-28T19:36:28;101440.22;;;0.54;100.00
53758;BME280;39674;59.860;30.672;2024-02-28T19:42:35;101339.63;;;-0.09;100.00
53758;BME280;39674;59.860;30.672;2024-02-28T19:45:05;101348.28;;;-0.04;100.00
53758;BME280;39674;59.860;30.672;2024-02-28T19:49:16;101437.63;;;0.52;100.00
53758;BME280;39674;59.860;30.672;2024-02-28T19:50:49;101321.44;;;-0.17;100.00
53758;BME280;39674;59.860;30.672;2024-02-28T19:53:25;101324.03;;;-0.17;100.00
53758;BME280;39674;59.860;30.672;2024-02-28T19:56:21;101432.44;;;0.52;100.00
53758;BME280;39674;59.860;30.672;2024-02-28T20:00:01;101428.97;;;0.55;100.00
53758;BME280;39674;59.860;30.672;2024-02-28T20:03:30;101324.03;;;-0.15;100.00
53758;BME280;39674;59.860;30.672;2024-02-28T20:06:44;101384.72;;;0.27;100.00
53758;BME280;39674;59.860;30.672;2024-02-28T20:09:42;101403.78;;;0.27;100.00
53758;BME280;39674;59.860;30.672;2024-02-28T20:12:17;101344.81;;;-0.12;100.00
53758;BME280;39674;59.860;30.672;2024-02-28T20:14:50;101435.03;;;0.57;100.00
53758;BME280;39674;59.860;30.672;2024-02-28T20:17:24;101322.28;;;-0.17;100.00
53758;BME280;39674;59.860;30.672;2024-02-28T20:19:56;101375.22;;;0.21;100.00
53758;BME280;39674;59.860;30.672;2024-02-28T20:22:29;101317.09;;;-0.17;100.00
53758;BME280;39674;59.860;30.672;2024-02-28T20:25:07;101337.91;;;-0.07;100.00
53758;BME280;39674;59.860;30.672;2024-02-28T20:27:46;101318.81;;;-0.22;100.00
53758;BME280;39674;59.860;30.672;2024-02-28T20:30:24;101338.75;;;-0.14;100.00
53758;BME280;39674;59.860;30.672;2024-02-28T20:32:55;101325.75;;;-0.18;100.00
53758;BME280;39674;59.860;30.672;2024-02-28T20:35:35;101430.66;;;0.46;100.00
53758;BME280;39674;59.860;30.672;2024-02-28T20:38:22;101394.25;;;0.23;100.00
53758;BME280;39674;59.860;30.672;2024-02-28T20:40:57;101325.78;;;-0.14;100.00
53758;BME280;39674;59.860;30.672;2024-02-28T20:43:31;101436.75;;;0.45;100.00
53758;BME280;39674;59.860;30.672;2024-02-28T20:46:05;101383.84;;;0.15;100.00
53758;BME280;39674;59.860;30.672;2024-02-28T20:48:34;101338.72;;;-0.16;100.00
53758;BME280;39674;59.860;30.672;2024-02-28T20:51:10;101423.75;;;0.35;100.00
53758;BME280;39674;59.860;30.672;2024-02-28T20:53:42;101378.63;;;0.11;100.00
53758;BME280;39674;59.860;30.672;2024-02-28T20:56:12;101400.34;;;0.22;100.00
53758;BME280;39674;59.860;30.672;2024-02-28T20:58:41;101325.75;;;-0.24;100.00
53758;BME280;39674;59.860;30.672;2024-02-28T21:01:13;101327.47;;;-0.23;100.00
53758;BME280;39674;59.860;30.672;2024-02-28T21:03:42;101343.97;;;-0.08;100.00
53758;BME280;39674;59.860;30.672;2024-02-28T21:06:24;101369.09;;;0.04;100.00
53758;BME280;39674;59.860;30.672;2024-02-28T21:09:02;101388.16;;;0.20;100.00
53758;BME280;39674;59.860;30.672;2024-02-28T21:11:38;101318.81;;;-0.25;100.00
53758;BME280;39674;59.860;30.672;2024-02-28T21:14:09;101388.16;;;0.03;100.00
53758;BME280;39674;59.860;30.672;2024-02-28T21:16:41;101355.19;;;-0.12;100.00
53758;BME280;39674;59.860;30.672;2024-02-28T21:19:11;101433.28;;;0.37;100.00
53758;BME280;39674;59.860;30.672;2024-02-28T21:21:43;101327.47;;;-0.23;100.00
53758;BME280;39674;59.860;30.672;2024-02-28T21:24:14;101346.53;;;-0.11;100.00
53758;BME280;39674;59.860;30.672;2024-02-28T21:26:44;101325.75;;;-0.21;100.00
53758;BME280;39674;59.860;30.672;2024-02-28T21:29:27;101393.38;;;0.20;100.00
53758;BME280;39674;59.860;30.672;2024-02-28T21:32:01;101426.38;;;0.45;100.00
53758;BME280;39674;59.860;30.672;2024-02-28T21:34:31;101428.94;;;0.44;100.00
53758;BME280;39674;59.860;30.672;2024-02-28T21:37:06;101421.13;;;0.44;100.00
53758;BME280;39674;59.860;30.672;2024-02-28T21:39:43;101325.75;;;-0.18;100.00
53758;BME280;39674;59.860;30.672;2024-02-28T21:42:16;101328.38;;;-0.08;100.00
53758;BME280;39674;59.860;30.672;2024-02-28T21:44:48;101307.56;;;-0.18;100.00
53758;BME280;39674;59.860;30.672;2024-02-28T21:47:22;101300.66;;;-0.17;100.00
53758;BME280;39674;59.860;30.672;2024-02-28T21:49:59;101397.75;;;0.42;100.00
53758;BME280;39674;59.860;30.672;2024-02-28T21:52:35;101368.25;;;0.17;100.00
53758;BME280;39674;59.860;30.672;2024-02-28T21:55:06;101303.22;;;-0.25;100.00
53758;BME280;39674;59.860;30.672;2024-02-28T21:57:37;101312.78;;;-0.21;100.00
53758;BME280;39674;59.860;30.672;2024-02-28T22:00:08;101415.06;;;0.39;100.00
53758;BME280;39674;59.860;30.672;2024-02-28T22:02:42;101355.25;;;0.00;100.00
53758;BME280;39674;59.860;30.672;2024-02-28T22:05:18;101399.47;;;0.32;100.00
53758;BME280;39674;59.860;30.672;2024-02-28T22:07:50;101341.38;;;-0.02;100.00
53758;BME280;39674;59.860;30.672;2024-02-28T22:10:36;101277.22;;;-0.42;100.00
53758;BME280;39674;59.860;30.672;2024-02-28T22:13:08;101410.75;;;0.36;100.00
53758;BME280;39674;59.860;30.672;2024-02-28T22:15:44;101363.03;;;0.11;100.00
53758;BME280;39674;59.860;30.672;2024-02-28T22:18:18;101368.25;;;0.12;100.00
53758;BME280;39674;59.860;30.672;2024-02-28T22:20:47;101311.91;;;-0.18;100.00
53758;BME280;39674;59.860;30.672;2024-02-28T22:23:17;101375.16;;;0.13;100.00
53758;BME280;39674;59.860;30.672;2024-02-28T22:25:50;101342.22;;;-0.17;100.00
53758;BME280;39674;59.860;30.672;2024-02-28T22:28:20;101385.53;;;0.07;100.00
53758;BME280;39674;59.860;30.672;2024-02-28T22:30:52;101324.88;;;-0.29;100.00
53758;BME280;39674;59.860;30.672;2024-02-28T22:33:30;101318.81;;;-0.25;100.00
53758;BME280;39674;59.860;30.672;2024-02-28T22:36:06;101306.69;;;-0.29;100.00
53758;BME280;39674;59.860;30.672;2024-02-28T22:38:51;101349.16;;;-0.08;100.00
53758;BME280;39674;59.860;30.672;2024-02-28T22:41:24;101311.88;;;-0.29;100.00
53758;BME280;39674;59.860;30.672;2024-02-28T22:43:57;101375.16;;;0.13;100.00
53758;BME280;39674;59.860;30.672;2024-02-28T22:46:31;101317.97;;;-0.27;100.00
53758;BME280;39674;59.860;30.672;2024-02-28T22:49:10;101324.88;;;-0.21;100.00
53758;BME280;39674;59.860;30.672;2024-02-28T22:51:42;101422.00;;;0.37;100.00
53758;BME280;39674;59.860;30.672;2024-02-28T22:54:42;101312.75;;;-0.22;100.00
53758;BME280;39674;59.860;30.672;2024-02-28T22:57:18;101335.31;;;-0.06;100.00
53758;BME280;39674;59.860;30.672;2024-02-28T23:00:28;101363.94;;;0.11;100.00
53758;BME280;39674;59.860;30.672;2024-02-28T23:03:34;101300.66;;;-0.23;100.00
53758;BME280;39674;59.860;30.672;2024-02-28T23:06:20;101373.47;;;0.20;100.00
53758;BME280;39674;59.860;30.672;2024-02-28T23:08:57;101311.03;;;-0.22;100.00
53758;BME280;39674;59.860;30.672;2024-02-28T23:11:56;101396.00;;;0.35;100.00
53758;BME280;39674;59.860;30.672;2024-02-28T23:15:03;101357.88;;;0.15;100.00
53758;BME280;39674;59.860;30.672;2024-02-28T23:18:05;101332.72;;;0.02;100.00
53758;BME280;39674;59.860;30.672;2024-02-28T23:20:51;101338.78;;;0.07;100.00
53758;BME280;39674;59.860;30.672;2024-02-28T23:23:48;101282.47;;;-0.22;100.00
53758;BME280;39674;59.860;30.672;2024-02-28T23:27:11;101275.53;;;-0.26;100.00
53758;BME280;39674;59.860;30.672;2024-02-28T23:29:47;101333.59;;;-0.04;100.00
53758;BME280;39674;59.860;30.672;2024-02-28T23:32:31;101300.63;;;-0.25;100.00
53758;BME280;39674;59.860;30.672;2024-02-28T23:35:13;101292.84;;;-0.28;100.00
53758;BME280;39674;59.860;30.672;2024-02-28T23:37:49;101329.22;;;-0.12;100.00
53758;BME280;39674;59.860;30.672;2024-02-28T23:40:25;101284.16;;;-0.36;100.00
53758;BME280;39674;59.860;30.672;2024-02-28T23:42:56;101334.44;;;-0.06;100.00
53758;BME280;39674;59.860;30.672;2024-02-28T23:46:00;101336.19;;;0.06;100.00
53758;BME280;39674;59.860;30.672;2024-02-28T23:48:51;101326.63;;;-0.06;100.00
53758;BME280;39674;59.860;30.672;2024-02-28T23:51:30;101275.53;;;-0.35;100.00
53758;BME280;39674;59.860;30.672;2024-02-28T23:54:34;101277.25;;;-0.31;100.00
53758;BME280;39674;59.860;30.672;2024-02-28T23:57:17;101267.72;;;-0.35;100.00
53758;BME280;39674;59.860;30.672;2024-02-28T23:59:57;101374.34;;;0.27;100.00
